Time;durP1;ratioP1;P1;durP2;ratioP2;P2;SDS_P1;SDS_P2;PMS_P1;PMS_P2;Temp;Humidity;BMP_temperature;BMP_pressure;BME280_temperature;BME280_humidity;BME280_pressure;Samples;Min_cycle;Max_cycle;Signal;HPM_P1;HPM_P2
2023/02/15 00:00:12;;;;;;;23.70;8.23;;;;;;;10.22;100.00;100976.16;4982581;28;20063;-79
2023/02/15 00:02:40;;;;;;;26.63;9.65;;;;;;;10.25;100.00;100972.28;4999165;28;20042;-79
2023/02/15 00:05:07;;;;;;;16.95;7.47;;;;;;;10.25;100.00;100965.06;4998858;28;20530;-79
2023/02/15 00:07:32;;;;;;;21.13;8.18;;;;;;;10.23;100.00;100956.31;4982113;28;20061;-77
2023/02/15 00:09:58;;;;;;;13.60;7.88;;;;;;;10.18;100.00;100939.88;4999036;28;20133;-79
2023/02/15 00:12:24;;;;;;;16.67;7.50;;;;;;;10.13;100.00;100937.72;4998917;28;20061;-78
2023/02/15 00:14:52;;;;;;;18.35;7.65;;;;;;;10.13;100.00;100924.28;5014656;28;20089;-84
2023/02/15 00:17:18;;;;;;;12.85;6.82;;;;;;;10.06;100.00;100936.69;4998742;28;20022;-78
2023/02/15 00:19:44;;;;;;;25.88;8.13;;;;;;;9.97;100.00;100934.16;4998072;28;20041;-80
2023/02/15 00:22:12;;;;;;;18.63;9.40;;;;;;;9.94;100.00;100918.38;4998769;28;20036;-80
2023/02/15 00:24:38;;;;;;;19.27;8.50;;;;;;;9.94;100.00;100913.00;4998554;28;20038;-83
2023/02/15 00:27:04;;;;;;;31.90;10.02;;;;;;;9.99;100.00;100911.50;4998313;28;20049;-80
2023/02/15 00:29:32;;;;;;;14.52;8.60;;;;;;;10.04;100.00;100911.84;4998650;28;20053;-78
2023/02/15 00:31:59;;;;;;;15.02;7.55;;;;;;;10.15;100.00;100917.88;4997790;28;20036;-79
2023/02/15 00:34:27;;;;;;;16.13;7.25;;;;;;;10.20;100.00;100918.22;4998404;28;20081;-79
2023/02/15 00:36:53;;;;;;;15.18;7.55;;;;;;;10.22;100.00;100908.97;5013821;28;20036;-78
2023/02/15 00:39:21;;;;;;;24.92;9.13;;;;;;;10.26;100.00;100910.28;4998452;28;20034;-79
2023/02/15 00:41:47;;;;;;;20.17;8.02;;;;;;;10.29;100.00;100904.63;5014732;28;20122;-81
2023/02/15 00:44:13;;;;;;;27.30;11.25;;;;;;;10.33;100.00;100899.75;4998399;28;20130;-86
2023/02/15 00:46:42;;;;;;;20.17;6.97;;;;;;;10.33;100.00;100894.38;5014301;28;20034;-80
2023/02/15 00:49:07;;;;;;;25.63;8.07;;;;;;;10.29;100.00;100872.38;4998565;28;20039;-84
2023/02/15 00:51:33;;;;;;;20.95;9.13;;;;;;;10.31;100.00;100893.69;5013833;28;20088;-81
2023/02/15 00:54:03;;;;;;;19.10;7.10;;;;;;;10.31;100.00;100880.25;4998143;28;20040;-80
2023/02/15 00:56:34;;;;;;;23.20;7.40;;;;;;;10.31;100.00;100873.03;4982023;28;20033;-80
2023/02/15 00:59:00;;;;;;;26.08;10.82;;;;;;;10.38;100.00;100877.75;4981617;28;20040;-79
2023/02/15 01:01:26;;;;;;;38.50;9.05;;;;;;;10.42;100.00;100873.69;4998104;28;20034;-83
2023/02/15 01:03:53;;;;;;;23.10;7.25;;;;;;;10.46;100.00;100894.69;4998033;28;20037;-80
2023/02/15 01:06:19;;;;;;;17.55;7.57;;;;;;;10.49;100.00;100894.34;4997918;28;20034;-83
2023/02/15 01:08:46;;;;;;;21.67;9.88;;;;;;;10.51;100.00;100907.63;4997779;28;20041;-79
2023/02/15 01:11:14;;;;;;;13.73;5.93;;;;;;;10.48;100.00;100900.72;5014060;28;20061;-81
2023/02/15 01:13:40;;;;;;;20.77;6.97;;;;;;;10.28;100.00;100902.09;4981632;28;20025;-77
2023/02/15 01:16:06;;;;;;;25.73;12.35;;;;;;;9.96;100.00;100903.78;4997629;28;20060;-77
2023/02/15 01:18:41;;;;;;;5.47;3.05;;;;;;;9.74;100.00;100931.28;5013826;28;20084;-77
2023/02/15 01:21:15;;;;;;;5.60;4.07;;;;;;;9.56;100.00;101002.06;4982780;28;20480;-77
2023/02/15 01:23:44;;;;;;;2.83;1.52;;;;;;;9.10;100.00;100984.63;5013905;28;20030;-78
2023/02/15 01:26:13;;;;;;;3.50;2.25;;;;;;;8.43;100.00;100995.09;5012743;28;20087;-77
2023/02/15 01:28:39;;;;;;;1.58;1.48;;;;;;;7.88;100.00;100990.75;4981402;28;20038;-78
2023/02/15 01:31:10;;;;;;;10.23;4.07;;;;;;;7.47;100.00;100996.53;4996764;28;20043;-82
2023/02/15 01:33:39;;;;;;;3.40;2.58;;;;;;;7.21;100.00;100899.25;5013752;28;20037;-77
2023/02/15 01:36:05;;;;;;;3.83;2.22;;;;;;;6.87;100.00;100974.69;4997450;28;20108;-77
2023/02/15 01:38:34;;;;;;;2.85;1.25;;;;;;;6.70;100.00;100973.66;4980991;28;20041;-78
2023/02/15 01:43:49;;;;;;;1.30;1.02;;;;;;;6.41;100.00;101021.78;4999224;28;20037;-80
2023/02/15 01:46:16;;;;;;;3.30;1.50;;;;;;;6.34;100.00;101013.50;5012390;28;20022;-77
2023/02/15 01:48:48;;;;;;;1.45;1.27;;;;;;;6.25;100.00;101010.84;5013157;28;20030;-79
2023/02/15 01:51:23;;;;;;;2.60;1.17;;;;;;;6.19;100.00;101016.72;5012603;28;20084;-77
2023/02/15 01:53:53;;;;;;;1.30;0.88;;;;;;;6.22;100.00;101037.81;5013616;28;20439;-77
2023/02/15 01:56:25;;;;;;;2.60;0.95;;;;;;;6.20;100.00;101045.13;4997162;28;20034;-78
2023/02/15 01:58:52;;;;;;;1.13;0.77;;;;;;;6.04;100.00;101030.50;4997121;28;20030;-78
2023/02/15 02:01:22;;;;;;;0.90;0.80;;;;;;;6.16;100.00;101036.53;4997150;28;20056;-79
2023/02/15 02:04:09;;;;;;;0.43;0.43;;;;;;;5.91;100.00;101027.25;4980234;28;20129;-78
2023/02/15 02:06:36;;;;;;;1.08;0.68;;;;;;;6.13;100.00;101063.53;5013082;28;20037;-78
2023/02/15 02:09:02;;;;;;;0.70;0.70;;;;;;;6.10;100.00;101058.47;5012465;28;20029;-78
2023/02/15 02:11:28;;;;;;;0.40;0.40;;;;;;;6.09;100.00;101062.13;4996956;28;20041;-77
2023/02/15 02:13:57;;;;;;;1.98;1.00;;;;;;;6.11;100.00;101062.81;4996871;28;20034;-77
2023/02/15 02:16:32;;;;;;;0.68;0.60;;;;;;;6.08;100.00;101077.28;5012058;28;20044;-77
2023/02/15 02:19:04;;;;;;;0.40;0.40;;;;;;;6.02;100.00;101083.19;5013873;28;20076;-79
2023/02/15 02:21:54;;;;;;;0.50;0.50;;;;;;;5.94;100.00;101083.88;5012958;28;20034;-80
2023/02/15 02:24:26;;;;;;;0.30;0.30;;;;;;;5.87;100.00;101090.69;5012438;28;20045;-79
2023/02/15 02:27:37;;;;;;;0.40;0.40;;;;;;;5.79;100.00;101081.69;5013884;28;20488;-79
2023/02/15 02:30:36;;;;;;;1.15;1.05;;;;;;;5.78;100.00;101090.69;4939489;28;20196;-79
2023/02/15 02:33:25;;;;;;;0.40;0.40;;;;;;;5.68;100.00;101080.84;5013016;28;20040;-77
2023/02/15 02:36:01;;;;;;;0.50;0.50;;;;;;;5.65;100.00;101091.78;4995911;28;20030;-81
2023/02/15 02:38:53;;;;;;;0.40;0.40;;;;;;;5.64;100.00;101084.78;4980566;28;20096;-78
2023/02/15 02:41:34;;;;;;;0.40;0.40;;;;;;;5.60;100.00;101088.66;5007197;28;20042;-77
2023/02/15 02:44:08;;;;;;;;;;;;;;;5.58;100.00;101090.63;5028327;28;20040;-77
2023/02/15 02:46:52;;;;;;;0.40;0.40;;;;;;;5.44;100.00;101067.84;5012328;28;19953;-79
2023/02/15 02:49:29;;;;;;;0.40;0.40;;;;;;;5.57;100.00;101099.63;5012167;28;20113;-77
2023/02/15 02:52:06;;;;;;;0.40;0.40;;;;;;;5.56;100.00;101091.75;4996488;28;20091;-78
2023/02/15 02:54:36;;;;;;;0.40;0.40;;;;;;;5.56;100.00;101089.06;5011941;28;20480;-81
2023/02/15 02:57:09;;;;;;;0.40;0.40;;;;;;;5.52;100.00;101085.84;5016501;28;20033;-80
2023/02/15 02:59:39;;;;;;;0.40;0.40;;;;;;;5.50;100.00;101087.78;4984534;28;20451;-78
2023/02/15 03:02:12;;;;;;;0.40;0.40;;;;;;;5.48;100.00;101071.09;4999378;28;20038;-81
2023/02/15 03:04:48;;;;;;;0.40;0.40;;;;;;;5.50;100.00;101078.00;5000722;28;20038;-77
2023/02/15 03:07:21;;;;;;;0.40;0.40;;;;;;;5.50;100.00;101071.78;4983750;28;20490;-78
2023/02/15 03:09:51;;;;;;;0.40;0.40;;;;;;;5.48;100.00;101069.28;5016320;28;20052;-81
2023/02/15 03:12:23;;;;;;;0.40;0.40;;;;;;;5.48;100.00;101068.44;5000163;28;20088;-80
2023/02/15 03:14:52;;;;;;;0.40;0.40;;;;;;;5.47;100.00;101067.56;5016407;28;20034;-79
2023/02/15 03:17:23;;;;;;;0.40;0.40;;;;;;;5.43;100.00;101055.50;5000059;28;20033;-78
2023/02/15 03:19:50;;;;;;;0.63;0.63;;;;;;;5.40;100.00;101036.25;5000261;28;20045;-80
2023/02/15 03:22:22;;;;;;;0.40;0.40;;;;;;;5.43;100.00;101041.31;4983259;28;20042;-77
2023/02/15 03:25:22;;;;;;;0.40;0.40;;;;;;;5.44;100.00;101045.66;5015870;28;20098;-79
2023/02/15 03:28:01;;;;;;;0.40;0.40;;;;;;;5.42;100.00;101037.78;4994376;28;20062;-81
2023/02/15 03:30:28;;;;;;;0.40;0.40;;;;;;;5.40;100.00;101034.44;4999798;28;20029;-77
2023/02/15 03:32:54;;;;;;;0.40;0.40;;;;;;;5.39;100.00;101037.22;5015587;28;20053;-77
2023/02/15 03:35:26;;;;;;;0.40;0.40;;;;;;;5.34;100.00;101036.78;4999756;28;20091;-79
2023/02/15 03:37:57;;;;;;;0.40;0.40;;;;;;;5.34;100.00;101028.78;4999420;28;20460;-83
2023/02/15 03:43:17;;;;;;;0.40;0.40;;;;;;;5.26;100.00;101021.47;5001970;28;20038;-81
2023/02/15 03:45:54;;;;;;;0.40;0.40;;;;;;;5.26;100.00;101021.47;5015270;28;20396;-83
2023/02/15 03:48:29;;;;;;;0.40;0.40;;;;;;;5.24;100.00;101008.28;4985888;28;20103;-78
2023/02/15 03:53:49;;;;;;;0.40;0.40;;;;;;;5.19;100.00;100994.50;5001147;28;20121;-79
2023/02/15 03:56:15;;;;;;;0.40;0.40;;;;;;;5.21;100.00;100999.69;4999457;28;20092;-78
2023/02/15 04:02:17;;;;;;;0.40;0.40;;;;;;;5.17;100.00;101019.63;5001987;28;20535;-78
2023/02/15 04:04:48;;;;;;;0.40;0.40;;;;;;;5.12;100.00;101017.34;4991402;28;20491;-80
2023/02/15 04:07:14;;;;;;;0.40;0.40;;;;;;;5.17;100.00;101016.94;5014164;28;20105;-79
2023/02/15 04:12:26;;;;;;;0.40;0.40;;;;;;;5.16;100.00;101026.78;5015361;28;20038;-79
2023/02/15 04:17:48;;;;;;;0.40;0.40;;;;;;;5.13;100.00;100995.03;5001614;28;20038;-81
2023/02/15 04:25:47;;;;;;;0.40;0.40;;;;;;;5.05;100.00;100989.53;5001208;28;20035;-79
2023/02/15 04:28:13;;;;;;;0.40;0.40;;;;;;;5.01;100.00;100994.31;4998346;28;20467;-78
2023/02/15 04:30:39;;;;;;;0.40;0.40;;;;;;;4.95;100.00;100991.31;4981953;28;20125;-78
2023/02/15 04:33:04;;;;;;;0.40;0.40;;;;;;;5.01;100.00;100996.97;4998753;28;20366;-78
2023/02/15 04:35:31;;;;;;;0.40;0.40;;;;;;;5.02;100.00;100993.31;5030878;28;20369;-78
2023/02/15 04:38:00;;;;;;;0.40;0.40;;;;;;;5.02;100.00;100998.63;4997400;28;20068;-78
2023/02/15 04:40:28;;;;;;;0.40;0.40;;;;;;;5.00;100.00;101008.63;5014450;28;20056;-78
2023/02/15 04:42:54;;;;;;;0.40;0.40;;;;;;;5.00;100.00;101011.28;4982225;28;20076;-79
2023/02/15 04:45:19;;;;;;;0.40;0.40;;;;;;;5.01;100.00;101015.63;4997965;28;20065;-78
2023/02/15 04:47:45;;;;;;;0.40;0.40;;;;;;;5.00;100.00;100999.75;4998483;28;20072;-80
2023/02/15 04:50:13;;;;;;;0.40;0.40;;;;;;;5.03;100.00;101004.84;4998014;28;20038;-79
2023/02/15 04:52:39;;;;;;;0.40;0.40;;;;;;;5.06;100.00;101015.22;4982217;28;20030;-78
2023/02/15 04:55:05;;;;;;;0.40;0.40;;;;;;;5.08;100.00;101013.28;4981967;28;20453;-78
2023/02/15 04:57:31;;;;;;;0.40;0.40;;;;;;;5.03;100.00;101018.16;4981807;28;20396;-80
2023/02/15 05:00:00;;;;;;;0.40;0.40;;;;;;;5.03;100.00;101007.50;5014502;28;20034;-79
2023/02/15 05:02:26;;;;;;;0.40;0.40;;;;;;;5.07;100.00;101014.25;5013676;28;20476;-83
2023/02/15 05:04:54;;;;;;;0.40;0.40;;;;;;;5.05;100.00;101018.84;4997335;28;20072;-78
2023/02/15 05:07:22;;;;;;;0.40;0.40;;;;;;;5.07;100.00;101019.56;4982122;28;20026;-78
2023/02/15 05:09:48;;;;;;;0.40;0.40;;;;;;;5.07;100.00;101014.25;4982049;28;20038;-80
2023/02/15 05:12:16;;;;;;;0.40;0.40;;;;;;;5.05;100.00;101021.50;5013979;28;20033;-80
2023/02/15 05:14:44;;;;;;;0.40;0.40;;;;;;;5.06;100.00;101017.91;4998209;28;20042;-77
2023/02/15 05:17:12;;;;;;;0.40;0.40;;;;;;;5.01;100.00;101012.97;5013765;28;20026;-79
2023/02/15 05:19:38;;;;;;;0.40;0.40;;;;;;;4.98;100.00;101020.38;4997169;28;20060;-78
2023/02/15 05:22:06;;;;;;;0.40;0.40;;;;;;;4.97;100.00;101018.69;5013098;28;20420;-81
2023/02/15 05:30:00;;;;;;;0.40;0.40;;;;;;;4.93;100.00;101006.63;4999061;28;20121;-81
2023/02/15 05:32:26;;;;;;;0.40;0.40;;;;;;;4.96;100.00;101014.34;4981420;28;20125;-77
2023/02/15 05:34:51;;;;;;;0.40;0.40;;;;;;;4.96;100.00;101019.66;4996466;28;20124;-79
2023/02/15 05:37:17;;;;;;;0.40;0.40;;;;;;;5.01;100.00;101030.78;4997585;28;20034;-78
2023/02/15 05:39:42;;;;;;;0.40;0.40;;;;;;;5.04;100.00;101034.00;4981031;28;20441;-81
2023/02/15 05:42:08;;;;;;;0.40;0.40;;;;;;;5.12;100.00;101043.16;5012570;28;20045;-80
2023/02/15 05:44:37;;;;;;;0.40;0.40;;;;;;;5.17;100.00;101039.13;4981119;28;20072;-80
2023/02/15 05:47:02;;;;;;;0.40;0.40;;;;;;;5.23;100.00;101043.91;4996927;28;20030;-79
2023/02/15 05:49:31;;;;;;;0.40;0.40;;;;;;;5.27;100.00;101044.50;4996759;28;20037;-79
2023/02/15 05:52:00;;;;;;;0.40;0.40;;;;;;;5.33;100.00;101040.44;4997156;28;20055;-79
2023/02/15 05:54:26;;;;;;;0.40;0.40;;;;;;;5.35;100.00;101042.00;4996709;28;20099;-81
2023/02/15 05:56:51;;;;;;;0.40;0.40;;;;;;;5.41;100.00;101053.94;4980981;28;20486;-78
2023/02/15 05:59:17;;;;;;;0.40;0.40;;;;;;;5.44;100.00;101053.66;5013795;28;20431;-82
2023/02/15 06:01:43;;;;;;;0.45;0.45;;;;;;;5.47;100.00;101053.41;4996692;28;20416;-79
2023/02/15 06:04:11;;;;;;;0.40;0.40;;;;;;;5.47;100.00;101061.41;5013259;28;20041;-82
2023/02/15 06:06:37;;;;;;;0.47;0.47;;;;;;;5.45;100.00;101045.53;4996254;28;20047;-78
2023/02/15 06:09:03;;;;;;;0.43;0.43;;;;;;;5.47;100.00;101059.56;4996880;28;20064;-78
2023/02/15 06:11:28;;;;;;;0.40;0.40;;;;;;;5.45;100.00;101050.00;4980064;28;20037;-83
2023/02/15 06:13:54;;;;;;;0.40;0.40;;;;;;;5.37;100.00;101040.06;4980837;28;20388;-80
2023/02/15 06:16:19;;;;;;;0.40;0.40;;;;;;;5.17;100.00;101040.94;4980666;28;20379;-78
2023/02/15 06:18:45;;;;;;;0.40;0.40;;;;;;;4.95;100.00;101039.28;4996268;28;20041;-78
2023/02/15 06:21:12;;;;;;;0.40;0.40;;;;;;;4.70;100.00;101035.22;4996680;28;20038;-78
2023/02/15 06:23:38;;;;;;;0.40;0.40;;;;;;;4.41;100.00;101033.22;4996472;28;20468;-80
2023/02/15 06:26:03;;;;;;;0.40;0.40;;;;;;;4.07;100.00;101040.50;4995910;28;20048;-78
2023/02/15 06:28:34;;;;;;;0.40;0.40;;;;;;;3.81;100.00;101032.88;4996744;28;20465;-79
2023/02/15 06:31:00;;;;;;;0.40;0.40;;;;;;;3.70;100.00;101040.84;5011799;28;20091;-79
2023/02/15 06:33:33;;;;;;;0.40;0.40;;;;;;;3.62;100.00;101040.63;4996518;28;20476;-78
2023/02/15 06:36:00;;;;;;;0.40;0.40;;;;;;;3.48;100.00;101042.59;5012680;28;20035;-79
2023/02/15 06:38:29;;;;;;;0.40;0.40;;;;;;;3.42;100.00;101036.94;4995840;28;20504;-78
2023/02/15 06:40:57;;;;;;;0.40;0.40;;;;;;;3.36;100.00;101040.06;5014030;28;20056;-79
2023/02/15 06:43:25;;;;;;;0.50;0.50;;;;;;;3.36;100.00;101048.03;4996496;28;20072;-80
2023/02/15 06:45:54;;;;;;;0.40;0.40;;;;;;;3.38;100.00;101044.28;4995668;28;20037;-78
2023/02/15 06:48:20;;;;;;;0.50;0.50;;;;;;;3.40;100.00;101041.50;4996357;28;20104;-78
2023/02/15 06:50:46;;;;;;;0.40;0.40;;;;;;;3.24;100.00;101050.69;5011102;28;20026;-78
2023/02/15 06:53:12;;;;;;;0.40;0.40;;;;;;;3.12;100.00;101048.16;4996429;28;20460;-78
2023/02/15 06:55:40;;;;;;;0.40;0.40;;;;;;;3.07;100.00;101035.25;4996447;28;20373;-79
2023/02/15 06:58:06;;;;;;;0.50;0.50;;;;;;;3.04;100.00;101043.44;4978944;28;20506;-78
2023/02/15 07:00:32;;;;;;;0.40;0.40;;;;;;;2.81;100.00;101054.06;5012353;28;20045;-78
2023/02/15 07:02:58;;;;;;;0.40;0.40;;;;;;;2.74;100.00;101046.69;4980153;28;20040;-82
2023/02/15 07:05:30;;;;;;;0.50;0.50;;;;;;;2.68;100.00;101049.81;5011812;28;20384;-79
2023/02/15 07:08:00;;;;;;;0.40;0.40;;;;;;;2.77;100.00;101027.84;4981300;28;20534;-78
2023/02/15 07:10:27;;;;;;;0.50;0.50;;;;;;;2.96;100.00;101054.66;4995561;28;20042;-78
2023/02/15 07:12:55;;;;;;;0.40;0.40;;;;;;;3.05;100.00;101047.81;5012480;28;20030;-80
2023/02/15 07:15:21;;;;;;;0.50;0.50;;;;;;;3.02;100.00;101051.56;5012350;28;20069;-79
2023/02/15 07:17:49;;;;;;;0.40;0.40;;;;;;;3.19;100.00;101054.69;5011818;28;20088;-77
2023/02/15 07:20:22;;;;;;;0.50;0.50;;;;;;;3.26;100.00;101063.88;4996551;28;20168;-78
2023/02/15 07:22:49;;;;;;;0.50;0.50;;;;;;;3.34;100.00;101058.78;4979795;28;20037;-79
2023/02/15 07:25:15;;;;;;;0.50;0.50;;;;;;;3.40;100.00;101058.31;5028240;28;20045;-78
2023/02/15 07:27:43;;;;;;;0.40;0.40;;;;;;;3.38;100.00;101062.03;4979965;28;20038;-78
2023/02/15 07:30:17;;;;;;;0.40;0.40;;;;;;;3.40;100.00;101066.28;4981447;28;20038;-79
2023/02/15 07:35:31;;;;;;;0.40;0.40;;;;;;;3.51;100.00;101070.72;4998067;28;20524;-78
2023/02/15 07:37:56;;;;;;;0.40;0.40;;;;;;;3.51;100.00;101068.91;5012124;28;20475;-78
2023/02/15 07:40:26;;;;;;;0.50;0.50;;;;;;;3.55;100.00;101074.84;4979657;28;20068;-81
2023/02/15 07:42:54;;;;;;;0.40;0.40;;;;;;;3.58;100.00;101076.41;4982658;28;20093;-79
2023/02/15 07:45:22;;;;;;;0.40;0.40;;;;;;;3.63;100.00;101079.56;4999304;28;20033;-78
2023/02/15 07:47:50;;;;;;;0.40;0.40;;;;;;;3.59;100.00;101080.75;4983040;28;20102;-78
2023/02/15 07:50:19;;;;;;;0.40;0.40;;;;;;;3.62;100.00;101081.34;5015294;28;20049;-77
2023/02/15 07:52:48;;;;;;;0.50;0.50;;;;;;;3.64;100.00;101075.91;4999490;28;20510;-78
2023/02/15 07:55:13;;;;;;;0.40;0.40;;;;;;;3.58;100.00;101073.75;5015351;28;20033;-79
2023/02/15 07:57:46;;;;;;;0.45;0.45;;;;;;;3.58;100.00;101069.28;4999310;28;20380;-77
2023/02/15 08:00:16;;;;;;;0.50;0.50;;;;;;;3.65;100.00;101082.91;5015387;28;20033;-78
2023/02/15 08:03:12;;;;;;;0.47;0.47;;;;;;;3.64;100.00;101087.41;5017241;28;20034;-78
2023/02/15 08:05:33;;;;;;;0.40;0.40;;;;;;;3.70;100.00;101084.25;5001154;28;20077;-81
2023/02/15 08:07:59;;;;;;;0.50;0.50;;;;;;;3.78;100.00;101091.59;4999325;28;20069;-81
2023/02/15 08:11:25;;;;;;;0.40;0.40;;;;;;;3.93;100.00;101097.50;4999077;28;20116;-80
2023/02/15 08:13:10;;;;;;;0.40;0.40;;;;;;;4.15;100.00;101096.59;5001586;28;20129;-81
2023/02/15 08:15:36;;;;;;;0.40;0.40;;;;;;;4.37;100.00;101101.00;4998559;28;20121;-79
2023/02/15 08:18:04;;;;;;;0.40;0.40;;;;;;;4.47;100.00;101093.91;4997036;28;20038;-79
2023/02/15 08:20:30;;;;;;;0.50;0.50;;;;;;;4.45;100.00;101101.22;4998053;28;20029;-77
2023/02/15 08:22:58;;;;;;;0.40;0.40;;;;;;;4.30;100.00;101100.66;4998781;28;20125;-80
2023/02/15 08:25:24;;;;;;;0.40;0.40;;;;;;;4.25;100.00;101115.31;4998423;28;20037;-79
2023/02/15 08:27:50;;;;;;;0.40;0.40;;;;;;;4.22;100.00;101108.44;4996418;28;20033;-77
2023/02/15 08:30:18;;;;;;;0.40;0.40;;;;;;;4.23;100.00;101107.44;4998688;28;20034;-80
2023/02/15 08:32:44;;;;;;;0.40;0.40;;;;;;;4.18;100.00;101114.97;5014684;28;20026;-81
2023/02/15 08:35:10;;;;;;;0.40;0.40;;;;;;;4.18;100.00;101120.28;5014714;28;20026;-81
2023/02/15 08:37:35;;;;;;;0.40;0.40;;;;;;;4.27;100.00;101121.38;4982307;28;20033;-81
2023/02/15 08:40:02;;;;;;;0.40;0.40;;;;;;;4.34;100.00;101112.75;4981953;28;20037;-80
2023/02/15 08:42:33;;;;;;;0.40;0.40;;;;;;;4.52;100.00;101114.84;4998678;28;20041;-80
2023/02/15 08:45:00;;;;;;;0.40;0.40;;;;;;;4.65;100.00;101110.19;4998227;28;20033;-78
2023/02/15 08:47:28;;;;;;;0.50;0.50;;;;;;;4.99;100.00;101107.34;4997917;28;20470;-78
2023/02/15 08:49:57;;;;;;;0.50;0.50;;;;;;;5.55;100.00;101114.91;5014414;28;20049;-78
2023/02/15 08:52:25;;;;;;;0.50;0.50;;;;;;;5.79;100.00;101106.56;4997493;28;20030;-78
2023/02/15 08:54:54;;;;;;;0.40;0.40;;;;;;;5.53;100.00;101097.34;5014067;28;20168;-79
2023/02/15 08:57:24;;;;;;;0.50;0.50;;;;;;;6.35;100.00;101114.00;5013954;28;20092;-77
2023/02/15 08:59:50;;;;;;;0.60;0.60;;;;;;;7.52;100.00;101121.00;5014113;28;20116;-78
2023/02/15 09:02:19;;;;;;;0.50;0.50;;;;;;;8.43;100.00;101121.06;5013539;28;20065;-80
2023/02/15 09:04:45;;;;;;;0.60;0.60;;;;;;;9.13;100.00;101116.59;5014004;28;20092;-78
2023/02/15 09:07:11;;;;;;;0.60;0.60;;;;;;;9.78;100.00;101118.78;4981485;28;20057;-78
2023/02/15 09:09:41;;;;;;;0.52;0.52;;;;;;;10.16;100.00;101124.63;4996517;28;20511;-80
2023/02/15 09:12:17;;;;;;;0.60;0.60;;;;;;;10.53;100.00;101110.78;4998577;28;20382;-79
2023/02/15 09:14:42;;;;;;;0.50;0.50;;;;;;;10.86;100.00;101121.53;4998115;28;20061;-80
2023/02/15 09:17:08;;;;;;;0.60;0.60;;;;;;;11.17;99.83;101127.06;4981194;28;20427;-82
2023/02/15 09:19:34;;;;;;;0.50;0.50;;;;;;;11.32;97.87;101129.03;4997745;28;20380;-81
2023/02/15 09:22:00;;;;;;;0.60;0.60;;;;;;;11.14;99.15;101137.28;4997718;28;20491;-81
2023/02/15 09:24:25;;;;;;;0.60;0.60;;;;;;;11.33;98.84;101142.34;4997652;28;20030;-80
2023/02/15 09:26:51;;;;;;;0.70;0.70;;;;;;;11.70;97.40;101142.75;5013619;28;20032;-78
2023/02/15 09:29:18;;;;;;;0.60;0.60;;;;;;;12.18;95.61;101148.97;4997338;28;20037;-80
2023/02/15 09:31:48;;;;;;;0.60;0.60;;;;;;;12.49;94.16;101148.91;4996813;28;20034;-79
2023/02/15 09:34:16;;;;;;;0.60;0.60;;;;;;;12.87;93.28;101151.69;5012656;28;20041;-78
2023/02/15 09:36:43;;;;;;;0.60;0.60;;;;;;;13.14;90.51;101156.50;5012482;28;20201;-76
2023/02/15 09:39:20;;;;;;;0.60;0.60;;;;;;;13.35;91.08;101155.81;5012275;28;20030;-76
2023/02/15 09:41:52;;;;;;;0.60;0.60;;;;;;;13.72;88.87;101156.78;5013427;28;20034;-76
2023/02/15 09:44:36;;;;;;;0.60;0.60;;;;;;;14.03;88.67;101147.63;5013303;28;20038;-77
2023/02/15 09:47:30;;;;;;;0.60;0.60;;;;;;;14.26;85.43;101147.47;5013079;28;20053;-76
2023/02/15 09:50:11;;;;;;;0.70;0.70;;;;;;;14.52;85.43;101152.34;4980518;28;20129;-78
2023/02/15 09:53:07;;;;;;;0.68;0.68;;;;;;;14.84;84.02;101142.06;5029814;28;20459;-76
2023/02/15 09:56:13;;;;;;;0.60;0.60;;;;;;;14.99;83.08;101145.53;5029629;28;20037;-76
2023/02/15 09:58:45;;;;;;;0.70;0.70;;;;;;;15.02;82.76;101141.59;5014173;28;20026;-77
2023/02/15 10:01:19;;;;;;;0.63;0.63;;;;;;;15.09;81.83;101137.09;5013372;28;20033;-78
2023/02/15 10:04:04;;;;;;;0.60;0.60;;;;;;;15.13;82.35;101143.75;5012951;28;20476;-78
2023/02/15 10:07:06;;;;;;;0.70;0.70;;;;;;;15.21;82.85;101140.91;5013954;28;20480;-78
2023/02/15 10:09:32;;;;;;;;;;;;;;;15.41;82.14;101151.06;4973249;28;20089;-77
2023/02/15 10:12:16;;;;;;;0.70;0.70;;;;;;;15.64;80.91;101143.50;5017048;28;19910;-78
2023/02/15 10:15:11;;;;;;;0.75;0.75;;;;;;;15.90;80.80;101150.94;5013259;28;20040;-78
2023/02/15 10:18:14;;;;;;;0.60;0.60;;;;;;;16.09;80.11;101146.69;5013155;28;20044;-78
2023/02/15 10:21:05;;;;;;;1.42;0.95;;;;;;;16.22;77.80;101148.56;5029378;28;20041;-77
2023/02/15 10:23:45;;;;;;;2.47;1.23;;;;;;;16.30;78.30;101151.13;4996769;28;20030;-76
2023/02/15 10:26:23;;;;;;;0.90;0.90;;;;;;;16.42;75.36;101159.50;5010907;28;20029;-77
2023/02/15 10:29:08;;;;;;;2.97;1.17;;;;;;;16.37;74.77;101146.53;5010447;28;20045;-76
2023/02/15 10:32:04;;;;;;;5.45;1.38;;;;;;;16.44;78.61;101154.72;5011354;28;20026;-77
2023/02/15 10:35:11;;;;;;;4.28;1.85;;;;;;;16.87;75.63;101154.41;5005382;28;20045;-77
2023/02/15 10:37:40;;;;;;;3.08;1.10;;;;;;;17.14;75.63;101155.22;4962927;28;20034;-79
2023/02/15 10:40:35;;;;;;;11.48;1.60;;;;;;;17.21;73.88;101149.81;5011734;28;20026;-77
2023/02/15 10:43:16;;;;;;;5.28;1.42;;;;;;;17.40;74.03;101156.28;5012488;28;20037;-77
2023/02/15 10:46:06;;;;;;;4.65;1.50;;;;;;;17.48;71.82;101143.28;4996149;28;20385;-77
2023/02/15 10:49:03;;;;;;;7.97;1.75;;;;;;;17.37;73.57;101160.25;5012685;28;20030;-77
2023/02/15 10:51:52;;;;;;;8.68;2.20;;;;;;;17.59;71.54;101163.53;5013771;28;20496;-77
2023/02/15 10:54:48;;;;;;;6.10;1.85;;;;;;;17.53;72.02;101146.19;5007759;28;20042;-77
2023/02/15 10:57:20;;;;;;;7.82;1.63;;;;;;;17.70;70.60;101154.75;5012638;28;20041;-77
2023/02/15 10:59:59;;;;;;;3.85;1.77;;;;;;;17.61;69.73;101153.28;5028878;28;20025;-78
2023/02/15 11:02:24;;;;;;;6.22;1.88;;;;;;;17.63;69.65;101150.38;4995797;28;20498;-78
2023/02/15 11:05:18;;;;;;;3.90;1.73;;;;;;;17.97;70.67;101151.97;5012197;28;20034;-78
2023/02/15 11:07:47;;;;;;;6.90;1.55;;;;;;;18.35;68.49;101149.28;5012428;28;20211;-80
2023/02/15 11:10:16;;;;;;;9.68;1.40;;;;;;;18.32;70.42;101148.88;4996140;28;20117;-79
2023/02/15 11:12:46;;;;;;;4.82;1.80;;;;;;;17.22;70.36;101152.28;5011601;28;20484;-78
2023/02/15 11:15:34;;;;;;;7.68;1.88;;;;;;;16.83;72.95;101142.25;4994706;28;20108;-78
2023/02/15 11:18:38;;;;;;;8.48;1.75;;;;;;;16.53;74.09;101158.91;5015116;28;20088;-78
2023/02/15 11:21:06;;;;;;;8.23;1.35;;;;;;;15.80;77.19;101155.94;5015915;28;20117;-79
2023/02/15 11:23:36;;;;;;;1.38;1.10;;;;;;;15.36;81.13;101160.63;5032400;28;20026;-78
2023/02/15 11:26:12;;;;;;;5.25;1.30;;;;;;;15.64;80.35;101162.47;4999581;28;20045;-79
2023/02/15 11:28:43;;;;;;;3.88;1.27;;;;;;;15.95;79.49;101159.31;5015873;28;20515;-79
2023/02/15 11:31:25;;;;;;;9.45;1.75;;;;;;;17.00;75.51;101159.00;4999008;28;20046;-79
2023/02/15 11:33:59;;;;;;;4.33;1.50;;;;;;;17.43;71.83;101145.78;4968367;28;20041;-79
2023/02/15 11:36:35;;;;;;;6.22;1.10;;;;;;;17.25;70.58;101127.44;4999225;28;20044;-79
2023/02/15 11:39:05;;;;;;;6.82;1.88;;;;;;;17.04;67.03;101142.09;4999867;28;20041;-78
2023/02/15 11:41:34;;;;;;;4.13;1.63;;;;;;;17.73;63.92;101153.47;4983018;28;20049;-79
2023/02/15 11:44:34;;;;;;;3.28;1.20;;;;;;;18.42;59.82;101143.81;4999376;28;20025;-79
2023/02/15 11:47:01;;;;;;;4.25;1.00;;;;;;;17.53;62.00;101150.81;4985774;28;20038;-78
2023/02/15 11:49:34;;;;;;;4.07;1.17;;;;;;;16.58;67.39;101153.69;4999219;28;20047;-78
2023/02/15 11:52:03;;;;;;;8.07;2.42;;;;;;;15.79;69.59;101127.94;4983212;28;20038;-79
2023/02/15 11:54:32;;;;;;;7.18;1.60;;;;;;;15.17;73.35;101131.53;4999460;28;20042;-80
2023/02/15 11:57:11;;;;;;;3.33;1.63;;;;;;;15.15;72.24;101144.41;4999328;28;20026;-79
2023/02/15 11:59:40;;;;;;;2.95;1.40;;;;;;;15.07;69.94;101133.72;4998866;28;20423;-79
2023/02/15 12:02:17;;;;;;;3.85;1.98;;;;;;;15.12;66.16;101133.97;4998971;28;20030;-78
2023/02/15 12:04:51;;;;;;;6.80;1.40;;;;;;;14.92;61.89;101114.84;5015317;28;20050;-80
2023/02/15 12:07:25;;;;;;;10.40;1.42;;;;;;;14.50;64.27;101139.03;4982306;28;20042;-80
2023/02/15 12:10:11;;;;;;;7.07;1.30;;;;;;;14.40;63.87;101107.91;5015282;28;20042;-78
2023/02/15 12:12:38;;;;;;;7.07;1.30;;;;;;;14.58;59.87;101127.25;5015329;28;20030;-79
2023/02/15 12:15:06;;;;;;;3.45;1.50;;;;;;;15.06;59.11;101132.91;5014931;28;20029;-78